createdAt,value
2022-10-26T00:00:43.119Z,101628.81
2022-10-26T00:05:51.450Z,101629.28
2022-10-26T00:10:57.927Z,101624.59
2022-10-26T00:16:02.234Z,101631.28
2022-10-26T00:21:10.777Z,101628.41
2022-10-26T00:26:15.381Z,101620.53
2022-10-26T00:31:19.402Z,101627.06
2022-10-26T00:36:27.769Z,101621.03
2022-10-26T00:41:32.430Z,101624.53
2022-10-26T00:46:39.989Z,101613.47
2022-10-26T00:51:49.387Z,101621.47
2022-10-26T00:56:52.312Z,101631.00
2022-10-26T01:01:56.394Z,101633.16
2022-10-26T01:07:17.025Z,101635.47
2022-10-26T01:12:31.637Z,101643.16
2022-10-26T01:17:47.932Z,101642.88
2022-10-26T01:23:16.176Z,101638.66
2022-10-26T01:28:37.066Z,101628.13
2022-10-26T01:33:45.891Z,101638.16
2022-10-26T01:39:11.970Z,101623.41
2022-10-26T01:44:23.585Z,101620.75
2022-10-26T01:49:33.784Z,101619.06
2022-10-26T02:00:05.094Z,101613.03
2022-10-26T02:05:27.807Z,101614.19
2022-10-26T02:11:06.323Z,101605.97
2022-10-26T02:16:45.012Z,101595.75
2022-10-26T02:21:55.084Z,101590.38
2022-10-26T02:26:59.601Z,101584.31
2022-10-26T02:32:06.689Z,101581.78
2022-10-26T02:37:09.360Z,101580.44
2022-10-26T02:42:11.747Z,101574.25
2022-10-26T02:47:16.388Z,101572.06
2022-10-26T02:52:24.607Z,101567.56
2022-10-26T02:57:41.140Z,101572.06
2022-10-26T03:02:47.742Z,101570.22
2022-10-26T03:07:52.934Z,101569.53
2022-10-26T03:12:54.857Z,101560.84
2022-10-26T03:17:56.601Z,101560.53
2022-10-26T03:23:01.273Z,101564.88
2022-10-26T03:28:04.508Z,101564.88
2022-10-26T03:33:12.734Z,101560.00
2022-10-26T03:38:15.994Z,101566.34
2022-10-26T03:43:22.891Z,101558.31
2022-10-26T03:48:24.687Z,101561.16
2022-10-26T03:53:27.040Z,101560.16
2022-10-26T03:58:28.839Z,101562.16
2022-10-26T04:03:34.130Z,101554.97
2022-10-26T04:08:35.965Z,101563.16
2022-10-26T04:13:38.212Z,101556.81
2022-10-26T04:18:42.221Z,101565.66
2022-10-26T04:23:46.711Z,101568.31
2022-10-26T04:28:48.510Z,101558.13
2022-10-26T04:33:50.372Z,101559.81
2022-10-26T04:38:57.320Z,101562.63
2022-10-26T04:44:02.596Z,101562.97
2022-10-26T04:49:04.813Z,101563.94
2022-10-26T04:54:07.244Z,101572.97
2022-10-26T04:59:09.283Z,101567.63
2022-10-26T05:04:22.907Z,101563.25
2022-10-26T05:09:26.806Z,101569.59
2022-10-26T05:14:30.947Z,101564.88
2022-10-26T05:19:34.961Z,101565.72
2022-10-26T05:24:36.812Z,101553.38
2022-10-26T05:29:40.826Z,101554.13
2022-10-26T05:34:53.373Z,101548.97
2022-10-26T05:39:59.748Z,101540.56
2022-10-26T05:45:03.979Z,101547.06
2022-10-26T05:50:08.797Z,101547.75
2022-10-26T05:55:17.802Z,101560.28
2022-10-26T06:00:24.121Z,101558.75
2022-10-26T06:05:28.642Z,101553.72
2022-10-26T06:10:34.985Z,101558.16
2022-10-26T06:16:04.226Z,101550.97
2022-10-26T06:21:27.242Z,101553.03
2022-10-26T06:26:40.773Z,101552.09
2022-10-26T06:31:47.333Z,101549.81
2022-10-26T06:41:56.882Z,101570.91
2022-10-26T06:47:07.492Z,101575.09
2022-10-26T06:52:20.023Z,101578.28
2022-10-26T06:57:29.078Z,101584.81
2022-10-26T07:02:33.578Z,101578.19
2022-10-26T07:07:36.312Z,101584.75
2022-10-26T07:12:41.824Z,101586.59
2022-10-26T07:17:48.852Z,101583.31
2022-10-26T07:22:57.859Z,101586.19
2022-10-26T07:28:02.217Z,101578.22
2022-10-26T07:33:08.893Z,101584.78
2022-10-26T07:38:12.809Z,101594.66
2022-10-26T07:43:17.961Z,101582.16
2022-10-26T07:48:19.822Z,101578.66
2022-10-26T07:53:30.547Z,101567.31
2022-10-26T07:58:36.377Z,101567.00
2022-10-26T08:03:38.374Z,101571.72
2022-10-26T08:08:49.899Z,101569.56
2022-10-26T08:13:56.514Z,101563.63
2022-10-26T08:19:01.862Z,101567.31
2022-10-26T08:24:05.042Z,101559.63
2022-10-26T08:29:10.229Z,101573.19
2022-10-26T08:34:12.142Z,101571.00
2022-10-26T08:39:16.236Z,101567.63
2022-10-26T08:44:23.040Z,101572.97
2022-10-26T08:49:54.809Z,101572.44
2022-10-26T08:54:57.888Z,101565.91
2022-10-26T09:00:03.899Z,101566.22
2022-10-26T09:05:16.306Z,101572.06
2022-10-26T09:11:02.804Z,101551.22
2022-10-26T09:16:23.738Z,101557.50
2022-10-26T09:21:31.200Z,101555.91
2022-10-26T09:26:55.010Z,101547.13
2022-10-26T09:31:59.363Z,101538.28
2022-10-26T09:37:24.640Z,101542.72
2022-10-26T09:42:36.701Z,101543.13
2022-10-26T09:47:47.071Z,101541.38
2022-10-26T09:52:53.503Z,101548.66
2022-10-26T09:57:57.886Z,101539.13
2022-10-26T10:03:02.132Z,101540.81
2022-10-26T10:08:17.611Z,101549.72
2022-10-26T10:13:26.130Z,101555.34
2022-10-26T10:18:32.718Z,101558.84
2022-10-26T10:23:53.416Z,101561.31
2022-10-26T10:29:00.984Z,101576.97
2022-10-26T10:34:17.999Z,101575.63
2022-10-26T10:39:35.648Z,101566.97
2022-10-26T10:44:46.728Z,101577.16
2022-10-26T10:50:00.416Z,101578.84
2022-10-26T10:55:33.046Z,101581.25
2022-10-26T11:00:37.427Z,101598.75
2022-10-26T11:06:09.526Z,101598.25
2022-10-26T11:11:25.706Z,101603.63
2022-10-26T11:16:33.857Z,101591.47
2022-10-26T11:21:41.239Z,101592.34
2022-10-26T11:26:55.836Z,101591.13
2022-10-26T11:32:11.313Z,101575.53
2022-10-26T11:37:45.589Z,101583.66
2022-10-26T11:42:58.135Z,101579.66
2022-10-26T11:48:28.320Z,101567.66
2022-10-26T11:53:41.276Z,101578.88
2022-10-26T11:58:46.377Z,101587.47
2022-10-26T12:03:50.989Z,101579.41
2022-10-26T12:08:59.968Z,101579.59
2022-10-26T12:14:17.928Z,101571.69
2022-10-26T12:19:30.255Z,101571.53
2022-10-26T12:24:35.588Z,101571.69
2022-10-26T12:29:46.902Z,101563.97
2022-10-26T12:34:51.873Z,101570.94
2022-10-26T12:39:53.915Z,101574.59
2022-10-26T12:44:58.930Z,101569.09
2022-10-26T12:50:00.770Z,101587.66
2022-10-26T12:55:28.353Z,101597.59
2022-10-26T13:00:30.590Z,101595.97
2022-10-26T13:06:07.638Z,101592.72
2022-10-26T13:11:21.606Z,101593.41
2022-10-26T13:16:24.777Z,101600.53
2022-10-26T13:21:27.516Z,101598.31
2022-10-26T13:27:07.309Z,101603.19
2022-10-26T13:32:14.089Z,101597.09
2022-10-26T13:37:27.265Z,101598.78
2022-10-26T13:42:45.618Z,101598.38
2022-10-26T13:48:12.852Z,101618.81
2022-10-26T13:53:24.557Z,101624.22
2022-10-26T13:58:33.193Z,101617.50
2022-10-26T14:03:40.068Z,101612.31
2022-10-26T14:08:44.642Z,101597.59
2022-10-26T14:13:49.892Z,101600.47
2022-10-26T14:18:52.339Z,101593.50
2022-10-26T14:23:56.213Z,101611.88
2022-10-26T14:29:00.728Z,101618.53
2022-10-26T14:34:06.365Z,101625.41
2022-10-26T14:39:18.273Z,101619.78
2022-10-26T14:44:23.969Z,101615.34
2022-10-26T14:49:27.834Z,101625.09
2022-10-26T14:54:30.204Z,101637.88
2022-10-26T14:59:32.121Z,101637.31
2022-10-26T15:04:35.010Z,101644.78
2022-10-26T15:09:46.257Z,101649.19
2022-10-26T15:14:54.124Z,101655.28
2022-10-26T15:19:56.087Z,101655.41
2022-10-26T15:24:59.582Z,101662.63
2022-10-26T15:30:37.154Z,101666.31
2022-10-26T15:35:41.452Z,101675.78
2022-10-26T15:40:47.117Z,101681.72
2022-10-26T15:45:49.223Z,101693.28
2022-10-26T15:50:53.700Z,101696.44
2022-10-26T15:55:57.446Z,101702.94
2022-10-26T16:00:59.888Z,101715.72
2022-10-26T16:06:02.717Z,101712.41
2022-10-26T16:11:04.870Z,101717.81
2022-10-26T16:16:15.895Z,101716.94
2022-10-26T16:21:23.356Z,101722.59
2022-10-26T16:26:25.420Z,101732.59
2022-10-26T16:31:30.250Z,101738.63
2022-10-26T16:36:34.677Z,101752.16
2022-10-26T16:41:36.928Z,101767.28
2022-10-26T16:46:41.328Z,101782.03
2022-10-26T16:51:45.508Z,101797.19
2022-10-26T16:56:47.364Z,101798.88
2022-10-26T17:01:51.427Z,101791.13
2022-10-26T17:06:58.099Z,101819.59
2022-10-26T17:12:02.156Z,101830.16
2022-10-26T17:17:05.032Z,101836.38
2022-10-26T17:22:09.071Z,101850.09
2022-10-26T17:27:13.351Z,101849.03
2022-10-26T17:32:18.319Z,101842.72
2022-10-26T17:37:33.923Z,101857.91
2022-10-26T17:42:40.670Z,101862.69
2022-10-26T17:47:43.829Z,101863.19
2022-10-26T17:52:48.371Z,101874.38
2022-10-26T17:57:54.563Z,101873.22
2022-10-26T18:02:56.430Z,101873.75
2022-10-26T18:07:59.384Z,101879.88
2022-10-26T18:13:03.782Z,101887.25
2022-10-26T18:18:07.931Z,101895.44
2022-10-26T18:23:10.067Z,101893.53
2022-10-26T18:28:17.558Z,101888.25
2022-10-26T18:33:19.750Z,101898.78
2022-10-26T18:38:21.684Z,101902.69
2022-10-26T18:43:23.891Z,101904.97
2022-10-26T18:48:25.769Z,101906.72
2022-10-26T18:53:27.677Z,101922.00
2022-10-26T18:58:31.525Z,101918.41
2022-10-26T19:03:33.967Z,101936.63
2022-10-26T19:08:38.079Z,101944.06
2022-10-26T19:13:42.455Z,101942.38
2022-10-26T19:18:44.593Z,101937.53
2022-10-26T19:23:57.744Z,101951.22
2022-10-26T19:29:06.174Z,101951.59
2022-10-26T19:34:11.333Z,101952.44
2022-10-26T19:39:15.447Z,101961.72
2022-10-26T19:44:22.019Z,101963.97
2022-10-26T19:49:29.343Z,101981.38
2022-10-26T19:54:31.377Z,101986.28
2022-10-26T19:59:35.489Z,101996.22
2022-10-26T20:04:40.496Z,101989.31
2022-10-26T20:09:42.320Z,102004.88
2022-10-26T20:14:46.128Z,102006.91
2022-10-26T20:19:55.844Z,102013.13
2022-10-26T20:25:00.426Z,102012.50
2022-10-26T20:30:02.263Z,102022.44
2022-10-26T20:35:06.217Z,102023.81
2022-10-26T20:40:10.594Z,102024.38
2022-10-26T20:45:16.790Z,102038.41
2022-10-26T20:50:27.032Z,102040.59
2022-10-26T20:55:46.403Z,102035.78
2022-10-26T21:00:59.368Z,102044.41
2022-10-26T21:06:10.435Z,102043.09
2022-10-26T21:11:14.553Z,102044.25
2022-10-26T21:16:17.939Z,102041.06
2022-10-26T21:21:30.294Z,102055.09
2022-10-26T21:26:32.196Z,102055.47
2022-10-26T21:31:36.197Z,102069.75
2022-10-26T21:36:40.130Z,102077.19
2022-10-26T21:41:44.466Z,102071.78
2022-10-26T21:46:50.816Z,102074.66
2022-10-26T21:51:55.080Z,102081.06
2022-10-26T21:57:00.443Z,102087.84
2022-10-26T22:02:04.565Z,102087.34
2022-10-26T22:07:06.448Z,102094.94
2022-10-26T22:12:08.710Z,102096.13
2022-10-26T22:17:15.260Z,102104.56
2022-10-26T22:22:21.882Z,102098.91
2022-10-26T22:27:25.856Z,102102.09
2022-10-26T22:32:27.654Z,102097.91
2022-10-26T22:37:31.951Z,102103.66
2022-10-26T22:42:35.846Z,102112.94
2022-10-26T22:47:40.086Z,102107.88
2022-10-26T22:52:47.896Z,102115.47
2022-10-26T22:57:50.034Z,102106.91
2022-10-26T23:02:56.782Z,102113.31
2022-10-26T23:08:00.801Z,102115.69
2022-10-26T23:13:08.185Z,102129.28
2022-10-26T23:18:13.448Z,102126.13
2022-10-26T23:23:18.978Z,102134.38
2022-10-26T23:28:20.816Z,102142.59
2022-10-26T23:33:27.441Z,102134.06
2022-10-26T23:38:34.634Z,102150.53
2022-10-26T23:43:36.475Z,102148.22
2022-10-26T23:48:45.276Z,102146.72
2022-10-26T23:53:51.207Z,102153.44
2022-10-26T23:58:57.645Z,102151.28
